sensor_id;sensor_type;location;lat;lon;timestamp;temperature;humidity
16627;DHT22;8427;52.204;7.202;2023-04-01T00:00:14;9.70;90.20
16627;DHT22;8427;52.204;7.202;2023-04-01T00:02:43;9.70;90.20
16627;DHT22;8427;52.204;7.202;2023-04-01T00:05:13;9.70;90.40
16627;DHT22;8427;52.204;7.202;2023-04-01T00:07:43;9.80;90.40
16627;DHT22;8427;52.204;7.202;2023-04-01T00:10:15;9.70;90.30
16627;DHT22;8427;52.204;7.202;2023-04-01T00:12:46;9.70;90.40
16627;DHT22;8427;52.204;7.202;2023-04-01T00:15:14;9.60;90.60
16627;DHT22;8427;52.204;7.202;2023-04-01T00:17:42;9.70;90.60
16627;DHT22;8427;52.204;7.202;2023-04-01T00:20:16;9.60;90.40
16627;DHT22;8427;52.204;7.202;2023-04-01T00:22:44;9.70;90.40
16627;DHT22;8427;52.204;7.202;2023-04-01T00:25:12;9.80;90.30
16627;DHT22;8427;52.204;7.202;2023-04-01T00:27:42;9.70;90.50
16627;DHT22;8427;52.204;7.202;2023-04-01T00:30:12;9.70;90.50
16627;DHT22;8427;52.204;7.202;2023-04-01T00:32:41;9.70;90.50
16627;DHT22;8427;52.204;7.202;2023-04-01T00:35:10;9.70;90.40
16627;DHT22;8427;52.204;7.202;2023-04-01T00:37:39;9.70;90.60
16627;DHT22;8427;52.204;7.202;2023-04-01T00:40:24;9.80;90.30
16627;DHT22;8427;52.204;7.202;2023-04-01T00:42:53;9.70;90.50
16627;DHT22;8427;52.204;7.202;2023-04-01T00:45:36;9.70;90.50
16627;DHT22;8427;52.204;7.202;2023-04-01T00:48:10;9.70;90.50
16627;DHT22;8427;52.204;7.202;2023-04-01T00:50:42;9.60;90.70
16627;DHT22;8427;52.204;7.202;2023-04-01T00:53:12;9.70;90.60
16627;DHT22;8427;52.204;7.202;2023-04-01T00:55:44;9.60;90.60
16627;DHT22;8427;52.204;7.202;2023-04-01T00:58:15;9.60;90.70
16627;DHT22;8427;52.204;7.202;2023-04-01T01:00:49;9.70;90.70
16627;DHT22;8427;52.204;7.202;2023-04-01T01:03:20;9.60;90.90
16627;DHT22;8427;52.204;7.202;2023-04-01T01:06:05;9.60;91.10
16627;DHT22;8427;52.204;7.202;2023-04-01T01:09:01;9.40;91.10
16627;DHT22;8427;52.204;7.202;2023-04-01T01:11:39;9.60;91.20
16627;DHT22;8427;52.204;7.202;2023-04-01T01:14:25;9.60;91.20
16627;DHT22;8427;52.204;7.202;2023-04-01T01:17:05;9.70;91.10
16627;DHT22;8427;52.204;7.202;2023-04-01T01:20:03;9.50;91.00
16627;DHT22;8427;52.204;7.202;2023-04-01T01:23:11;9.50;91.00
16627;DHT22;8427;52.204;7.202;2023-04-01T01:25:51;9.60;91.20
16627;DHT22;8427;52.204;7.202;2023-04-01T01:28:35;9.50;91.30
16627;DHT22;8427;52.204;7.202;2023-04-01T01:31:12;9.50;91.30
16627;DHT22;8427;52.204;7.202;2023-04-01T01:33:53;9.50;91.30
16627;DHT22;8427;52.204;7.202;2023-04-01T01:36:28;9.50;91.40
16627;DHT22;8427;52.204;7.202;2023-04-01T01:38:58;9.50;91.50
16627;DHT22;8427;52.204;7.202;2023-04-01T01:41:28;9.50;91.50
16627;DHT22;8427;52.204;7.202;2023-04-01T01:43:58;9.50;91.40
16627;DHT22;8427;52.204;7.202;2023-04-01T01:46:28;9.60;91.30
16627;DHT22;8427;52.204;7.202;2023-04-01T01:48:59;9.60;91.60
16627;DHT22;8427;52.204;7.202;2023-04-01T01:51:29;9.60;91.50
16627;DHT22;8427;52.204;7.202;2023-04-01T01:53:58;9.60;91.60
16627;DHT22;8427;52.204;7.202;2023-04-01T01:56:30;9.40;91.70
16627;DHT22;8427;52.204;7.202;2023-04-01T01:59:05;9.60;91.70
16627;DHT22;8427;52.204;7.202;2023-04-01T02:01:39;9.50;91.50
16627;DHT22;8427;52.204;7.202;2023-04-01T02:04:09;9.50;91.60
16627;DHT22;8427;52.204;7.202;2023-04-01T02:06:44;9.40;91.70
16627;DHT22;8427;52.204;7.202;2023-04-01T02:09:22;9.50;91.70
16627;DHT22;8427;52.204;7.202;2023-04-01T02:11:52;9.40;91.70
16627;DHT22;8427;52.204;7.202;2023-04-01T02:14:23;9.50;91.80
16627;DHT22;8427;52.204;7.202;2023-04-01T02:16:57;9.50;91.80
16627;DHT22;8427;52.204;7.202;2023-04-01T02:19:29;9.40;91.80
16627;DHT22;8427;52.204;7.202;2023-04-01T02:22:05;9.40;91.70
16627;DHT22;8427;52.204;7.202;2023-04-01T02:24:36;9.60;91.70
16627;DHT22;8427;52.204;7.202;2023-04-01T02:27:05;9.40;91.70
16627;DHT22;8427;52.204;7.202;2023-04-01T02:29:33;9.50;91.60
16627;DHT22;8427;52.204;7.202;2023-04-01T02:32:02;9.50;91.80
16627;DHT22;8427;52.204;7.202;2023-04-01T02:34:33;9.30;92.10
16627;DHT22;8427;52.204;7.202;2023-04-01T02:37:01;9.50;92.00
16627;DHT22;8427;52.204;7.202;2023-04-01T02:39:31;9.50;92.10
16627;DHT22;8427;52.204;7.202;2023-04-01T02:41:59;9.30;92.00
16627;DHT22;8427;52.204;7.202;2023-04-01T02:44:28;9.50;91.80
16627;DHT22;8427;52.204;7.202;2023-04-01T02:46:56;9.30;91.70
16627;DHT22;8427;52.204;7.202;2023-04-01T02:49:33;9.50;91.90
16627;DHT22;8427;52.204;7.202;2023-04-01T02:52:01;9.40;91.80
16627;DHT22;8427;52.204;7.202;2023-04-01T02:54:34;9.40;92.10
16627;DHT22;8427;52.204;7.202;2023-04-01T02:57:16;9.50;91.80
16627;DHT22;8427;52.204;7.202;2023-04-01T02:59:45;9.50;91.90
16627;DHT22;8427;52.204;7.202;2023-04-01T03:02:14;9.30;91.90
16627;DHT22;8427;52.204;7.202;2023-04-01T03:04:43;9.30;92.10
16627;DHT22;8427;52.204;7.202;2023-04-01T03:07:12;9.40;92.10
16627;DHT22;8427;52.204;7.202;2023-04-01T03:09:42;9.40;92.00
16627;DHT22;8427;52.204;7.202;2023-04-01T03:12:10;9.40;92.10
16627;DHT22;8427;52.204;7.202;2023-04-01T03:14:38;9.40;92.10
16627;DHT22;8427;52.204;7.202;2023-04-01T03:17:07;9.40;92.10
16627;DHT22;8427;52.204;7.202;2023-04-01T03:19:35;9.50;92.20
16627;DHT22;8427;52.204;7.202;2023-04-01T03:22:03;9.50;92.10
16627;DHT22;8427;52.204;7.202;2023-04-01T03:24:33;9.40;91.90
16627;DHT22;8427;52.204;7.202;2023-04-01T03:27:03;9.50;92.00
16627;DHT22;8427;52.204;7.202;2023-04-01T03:29:32;9.50;91.90
16627;DHT22;8427;52.204;7.202;2023-04-01T03:32:00;9.40;92.10
16627;DHT22;8427;52.204;7.202;2023-04-01T03:34:28;9.50;91.80
16627;DHT22;8427;52.204;7.202;2023-04-01T03:36:57;9.60;91.80
16627;DHT22;8427;52.204;7.202;2023-04-01T03:39:29;9.40;91.80
16627;DHT22;8427;52.204;7.202;2023-04-01T03:41:59;9.50;91.80
16627;DHT22;8427;52.204;7.202;2023-04-01T03:44:33;9.50;91.90
16627;DHT22;8427;52.204;7.202;2023-04-01T03:47:02;9.60;92.00
16627;DHT22;8427;52.204;7.202;2023-04-01T03:49:30;9.50;91.70
16627;DHT22;8427;52.204;7.202;2023-04-01T03:51:58;9.50;91.80
16627;DHT22;8427;52.204;7.202;2023-04-01T03:54:29;9.50;92.00
16627;DHT22;8427;52.204;7.202;2023-04-01T03:56:58;9.50;92.10
16627;DHT22;8427;52.204;7.202;2023-04-01T03:59:27;9.50;92.00
16627;DHT22;8427;52.204;7.202;2023-04-01T04:01:58;9.30;92.00
16627;DHT22;8427;52.204;7.202;2023-04-01T04:04:27;9.50;92.20
16627;DHT22;8427;52.204;7.202;2023-04-01T04:06:55;9.50;92.20
16627;DHT22;8427;52.204;7.202;2023-04-01T04:09:27;9.60;92.10
16627;DHT22;8427;52.204;7.202;2023-04-01T04:12:00;9.40;92.20
16627;DHT22;8427;52.204;7.202;2023-04-01T04:14:29;9.50;92.10
16627;DHT22;8427;52.204;7.202;2023-04-01T04:16:58;9.60;92.10
16627;DHT22;8427;52.204;7.202;2023-04-01T04:19:26;9.60;92.10
16627;DHT22;8427;52.204;7.202;2023-04-01T04:21:55;9.50;92.20
16627;DHT22;8427;52.204;7.202;2023-04-01T04:24:23;9.60;92.20
16627;DHT22;8427;52.204;7.202;2023-04-01T04:26:52;9.60;92.20
16627;DHT22;8427;52.204;7.202;2023-04-01T04:29:21;9.50;92.10
16627;DHT22;8427;52.204;7.202;2023-04-01T04:31:50;9.60;92.20
16627;DHT22;8427;52.204;7.202;2023-04-01T04:34:21;9.50;92.10
16627;DHT22;8427;52.204;7.202;2023-04-01T04:36:50;9.50;92.20
16627;DHT22;8427;52.204;7.202;2023-04-01T04:39:22;9.50;92.10
16627;DHT22;8427;52.204;7.202;2023-04-01T04:41:49;9.60;92.00
16627;DHT22;8427;52.204;7.202;2023-04-01T04:44:18;9.60;92.10
16627;DHT22;8427;52.204;7.202;2023-04-01T04:46:49;9.60;92.00
16627;DHT22;8427;52.204;7.202;2023-04-01T04:49:17;9.60;92.10
16627;DHT22;8427;52.204;7.202;2023-04-01T04:51:49;9.60;92.00
16627;DHT22;8427;52.204;7.202;2023-04-01T04:54:20;9.60;92.10
16627;DHT22;8427;52.204;7.202;2023-04-01T04:56:48;9.60;91.90
16627;DHT22;8427;52.204;7.202;2023-04-01T04:59:22;9.60;92.00
16627;DHT22;8427;52.204;7.202;2023-04-01T05:01:50;9.80;91.80
16627;DHT22;8427;52.204;7.202;2023-04-01T05:04:18;9.60;91.80
16627;DHT22;8427;52.204;7.202;2023-04-01T05:06:49;9.60;92.00
16627;DHT22;8427;52.204;7.202;2023-04-01T05:09:19;9.70;91.90
16627;DHT22;8427;52.204;7.202;2023-04-01T05:11:51;9.50;92.00
16627;DHT22;8427;52.204;7.202;2023-04-01T05:14:20;9.60;91.90
16627;DHT22;8427;52.204;7.202;2023-04-01T05:16:50;9.60;92.00
16627;DHT22;8427;52.204;7.202;2023-04-01T05:19:35;9.60;92.10
16627;DHT22;8427;52.204;7.202;2023-04-01T05:22:05;9.60;92.00
16627;DHT22;8427;52.204;7.202;2023-04-01T05:24:35;9.70;91.90
16627;DHT22;8427;52.204;7.202;2023-04-01T05:27:04;9.60;92.00
16627;DHT22;8427;52.204;7.202;2023-04-01T05:29:33;9.70;92.10
16627;DHT22;8427;52.204;7.202;2023-04-01T05:32:01;9.60;91.90
16627;DHT22;8427;52.204;7.202;2023-04-01T05:34:30;9.60;91.80
16627;DHT22;8427;52.204;7.202;2023-04-01T05:36:58;9.60;92.00
16627;DHT22;8427;52.204;7.202;2023-04-01T05:39:28;9.70;92.10
16627;DHT22;8427;52.204;7.202;2023-04-01T05:41:58;9.50;92.00
16627;DHT22;8427;52.204;7.202;2023-04-01T05:44:28;9.70;92.20
16627;DHT22;8427;52.204;7.202;2023-04-01T05:46:56;9.70;92.10
16627;DHT22;8427;52.204;7.202;2023-04-01T05:49:24;9.70;92.10
16627;DHT22;8427;52.204;7.202;2023-04-01T05:51:55;9.60;92.00
16627;DHT22;8427;52.204;7.202;2023-04-01T05:54:23;9.60;92.10
16627;DHT22;8427;52.204;7.202;2023-04-01T05:56:55;9.60;91.90
16627;DHT22;8427;52.204;7.202;2023-04-01T05:59:24;9.60;92.10
16627;DHT22;8427;52.204;7.202;2023-04-01T06:01:53;9.80;91.90
16627;DHT22;8427;52.204;7.202;2023-04-01T06:04:21;9.60;91.90
16627;DHT22;8427;52.204;7.202;2023-04-01T06:06:52;9.80;91.80
16627;DHT22;8427;52.204;7.202;2023-04-01T06:09:27;9.80;91.90
16627;DHT22;8427;52.204;7.202;2023-04-01T06:15:07;9.80;91.80
16627;DHT22;8427;52.204;7.202;2023-04-01T06:17:52;9.80;91.70
16627;DHT22;8427;52.204;7.202;2023-04-01T06:20:28;9.90;91.60
16627;DHT22;8427;52.204;7.202;2023-04-01T06:23:26;9.90;91.70
16627;DHT22;8427;52.204;7.202;2023-04-01T06:26:10;9.90;91.50
16627;DHT22;8427;52.204;7.202;2023-04-01T06:29:16;10.00;91.30
16627;DHT22;8427;52.204;7.202;2023-04-01T06:32:08;10.00;91.30
16627;DHT22;8427;52.204;7.202;2023-04-01T06:35:07;10.00;91.40
16627;DHT22;8427;52.204;7.202;2023-04-01T06:37:51;10.10;91.20
16627;DHT22;8427;52.204;7.202;2023-04-01T06:41:09;10.10;91.30
16627;DHT22;8427;52.204;7.202;2023-04-01T06:43:47;10.30;91.20
16627;DHT22;8427;52.204;7.202;2023-04-01T06:46:32;10.30;91.10
16627;DHT22;8427;52.204;7.202;2023-04-01T06:49:15;10.20;91.00
16627;DHT22;8427;52.204;7.202;2023-04-01T06:51:54;10.30;91.00
16627;DHT22;8427;52.204;7.202;2023-04-01T06:54:31;10.30;90.90
16627;DHT22;8427;52.204;7.202;2023-04-01T06:57:03;10.30;91.10
16627;DHT22;8427;52.204;7.202;2023-04-01T06:59:36;10.40;91.10
16627;DHT22;8427;52.204;7.202;2023-04-01T07:02:19;10.40;91.10
16627;DHT22;8427;52.204;7.202;2023-04-01T07:04:55;10.70;90.90
16627;DHT22;8427;52.204;7.202;2023-04-01T07:07:30;10.70;90.60
16627;DHT22;8427;52.204;7.202;2023-04-01T07:10:13;10.70;90.30
16627;DHT22;8427;52.204;7.202;2023-04-01T07:12:45;10.70;90.30
16627;DHT22;8427;52.204;7.202;2023-04-01T07:15:19;10.80;90.40
16627;DHT22;8427;52.204;7.202;2023-04-01T07:20:46;11.00;89.50
16627;DHT22;8427;52.204;7.202;2023-04-01T07:23:21;11.00;89.40
16627;DHT22;8427;52.204;7.202;2023-04-01T07:25:53;11.10;89.30
16627;DHT22;8427;52.204;7.202;2023-04-01T07:28:26;11.00;89.30
16627;DHT22;8427;52.204;7.202;2023-04-01T07:31:05;11.00;89.30
16627;DHT22;8427;52.204;7.202;2023-04-01T07:33:39;11.00;89.50
16627;DHT22;8427;52.204;7.202;2023-04-01T07:36:17;11.00;89.50
16627;DHT22;8427;52.204;7.202;2023-04-01T07:38:59;11.10;89.20
16627;DHT22;8427;52.204;7.202;2023-04-01T07:41:39;11.30;88.80
16627;DHT22;8427;52.204;7.202;2023-04-01T07:44:13;11.30;88.70
16627;DHT22;8427;52.204;7.202;2023-04-01T07:46:57;11.30;88.10
16627;DHT22;8427;52.204;7.202;2023-04-01T07:49:32;11.60;88.20
16627;DHT22;8427;52.204;7.202;2023-04-01T07:52:10;11.60;88.20
16627;DHT22;8427;52.204;7.202;2023-04-01T07:54:47;11.70;88.00
16627;DHT22;8427;52.204;7.202;2023-04-01T07:57:20;11.80;87.70
16627;DHT22;8427;52.204;7.202;2023-04-01T07:59:58;12.00;87.10
16627;DHT22;8427;52.204;7.202;2023-04-01T08:02:37;12.10;86.70
16627;DHT22;8427;52.204;7.202;2023-04-01T08:05:19;12.20;86.60
16627;DHT22;8427;52.204;7.202;2023-04-01T08:07:57;12.30;86.50
16627;DHT22;8427;52.204;7.202;2023-04-01T08:10:32;12.30;86.00
16627;DHT22;8427;52.204;7.202;2023-04-01T08:13:09;12.20;86.20
16627;DHT22;8427;52.204;7.202;2023-04-01T08:15:52;12.20;86.30
16627;DHT22;8427;52.204;7.202;2023-04-01T08:18:31;12.00;86.40
16627;DHT22;8427;52.204;7.202;2023-04-01T08:21:05;12.00;86.60
16627;DHT22;8427;52.204;7.202;2023-04-01T08:23:41;12.10;86.40
16627;DHT22;8427;52.204;7.202;2023-04-01T08:26:14;12.30;85.50
16627;DHT22;8427;52.204;7.202;2023-04-01T08:28:50;12.50;85.20
16627;DHT22;8427;52.204;7.202;2023-04-01T08:31:24;12.60;84.90
16627;DHT22;8427;52.204;7.202;2023-04-01T08:33:55;12.70;84.60
16627;DHT22;8427;52.204;7.202;2023-04-01T08:36:29;12.60;84.90
16627;DHT22;8427;52.204;7.202;2023-04-01T08:39:06;12.70;85.00
16627;DHT22;8427;52.204;7.202;2023-04-01T08:42:01;12.60;84.00
16627;DHT22;8427;52.204;7.202;2023-04-01T08:44:51;12.50;85.10
16627;DHT22;8427;52.204;7.202;2023-04-01T08:50:47;12.90;85.00
16627;DHT22;8427;52.204;7.202;2023-04-01T08:53:25;13.10;84.50
16627;DHT22;8427;52.204;7.202;2023-04-01T08:56:06;13.20;83.10
16627;DHT22;8427;52.204;7.202;2023-04-01T08:58:59;13.30;83.50
16627;DHT22;8427;52.204;7.202;2023-04-01T09:01:54;13.50;83.10
16627;DHT22;8427;52.204;7.202;2023-04-01T09:04:39;13.60;82.00
16627;DHT22;8427;52.204;7.202;2023-04-01T09:07:22;13.70;81.50
16627;DHT22;8427;52.204;7.202;2023-04-01T09:13:09;13.40;82.10
16627;DHT22;8427;52.204;7.202;2023-04-01T09:15:54;13.50;81.70
16627;DHT22;8427;52.204;7.202;2023-04-01T09:18:49;13.60;82.10
16627;DHT22;8427;52.204;7.202;2023-04-01T09:21:42;13.60;81.50
16627;DHT22;8427;52.204;7.202;2023-04-01T09:24:35;13.80;80.40
16627;DHT22;8427;52.204;7.202;2023-04-01T09:27:15;14.10;80.50
16627;DHT22;8427;52.204;7.202;2023-04-01T09:30:03;14.30;79.30
16627;DHT22;8427;52.204;7.202;2023-04-01T09:32:48;14.40;77.10
16627;DHT22;8427;52.204;7.202;2023-04-01T09:35:22;14.40;78.20
16627;DHT22;8427;52.204;7.202;2023-04-01T09:37:54;14.30;76.90
16627;DHT22;8427;52.204;7.202;2023-04-01T09:40:33;14.30;77.40
16627;DHT22;8427;52.204;7.202;2023-04-01T09:43:23;14.20;78.30
16627;DHT22;8427;52.204;7.202;2023-04-01T09:46:09;14.20;78.10
16627;DHT22;8427;52.204;7.202;2023-04-01T09:48:52;14.20;77.60
16627;DHT22;8427;52.204;7.202;2023-04-01T09:51:28;14.20;78.60
16627;DHT22;8427;52.204;7.202;2023-04-01T09:54:08;14.10;78.60
16627;DHT22;8427;52.204;7.202;2023-04-01T09:57:25;13.90;78.80
16627;DHT22;8427;52.204;7.202;2023-04-01T10:00:23;13.70;79.30
16627;DHT22;8427;52.204;7.202;2023-04-01T10:03:35;13.80;79.10
16627;DHT22;8427;52.204;7.202;2023-04-01T10:09:44;13.90;77.40
16627;DHT22;8427;52.204;7.202;2023-04-01T10:12:58;14.40;78.80
16627;DHT22;8427;52.204;7.202;2023-04-01T10:16:09;14.60;78.00
16627;DHT22;8427;52.204;7.202;2023-04-01T10:19:10;14.70;76.40
16627;DHT22;8427;52.204;7.202;2023-04-01T10:21:59;14.70;76.50
16627;DHT22;8427;52.204;7.202;2023-04-01T10:27:55;14.00;76.00
16627;DHT22;8427;52.204;7.202;2023-04-01T10:36:55;14.10;76.00
16627;DHT22;8427;52.204;7.202;2023-04-01T10:49:05;14.10;79.10
16627;DHT22;8427;52.204;7.202;2023-04-01T10:52:11;14.00;80.40
16627;DHT22;8427;52.204;7.202;2023-04-01T10:54:51;13.90;80.70
16627;DHT22;8427;52.204;7.202;2023-04-01T11:00:57;13.80;80.80
16627;DHT22;8427;52.204;7.202;2023-04-01T11:07:03;13.80;80.40
16627;DHT22;8427;52.204;7.202;2023-04-01T11:13:00;13.80;79.90
16627;DHT22;8427;52.204;7.202;2023-04-01T11:16:03;13.60;79.30
16627;DHT22;8427;52.204;7.202;2023-04-01T11:19:08;13.40;80.40
16627;DHT22;8427;52.204;7.202;2023-04-01T11:21:54;13.30;81.60
16627;DHT22;8427;52.204;7.202;2023-04-01T11:24:51;13.30;81.60
16627;DHT22;8427;52.204;7.202;2023-04-01T11:27:39;13.40;81.70
16627;DHT22;8427;52.204;7.202;2023-04-01T11:30:24;13.50;81.60
16627;DHT22;8427;52.204;7.202;2023-04-01T11:32:58;13.60;82.30
16627;DHT22;8427;52.204;7.202;2023-04-01T11:35:52;13.70;82.70
16627;DHT22;8427;52.204;7.202;2023-04-01T11:38:38;13.90;81.30
16627;DHT22;8427;52.204;7.202;2023-04-01T11:41:22;13.90;80.80
16627;DHT22;8427;52.204;7.202;2023-04-01T11:44:16;13.90;81.30
16627;DHT22;8427;52.204;7.202;2023-04-01T11:47:04;13.90;80.80
16627;DHT22;8427;52.204;7.202;2023-04-01T11:49:49;13.90;80.30
16627;DHT22;8427;52.204;7.202;2023-04-01T11:52:37;13.80;81.10
16627;DHT22;8427;52.204;7.202;2023-04-01T11:55:24;13.60;81.30
16627;DHT22;8427;52.204;7.202;2023-04-01T11:58:19;13.50;81.00
16627;DHT22;8427;52.204;7.202;2023-04-01T12:01:01;13.30;81.80
16627;DHT22;8427;52.204;7.202;2023-04-01T12:06:45;13.20;83.00
16627;DHT22;8427;52.204;7.202;2023-04-01T12:09:21;12.90;83.20
16627;DHT22;8427;52.204;7.202;2023-04-01T12:12:03;12.80;83.50
16627;DHT22;8427;52.204;7.202;2023-04-01T12:14:42;12.60;83.70
16627;DHT22;8427;52.204;7.202;2023-04-01T12:17:26;12.50;84.90
16627;DHT22;8427;52.204;7.202;2023-04-01T12:20:02;12.20;85.50
16627;DHT22;8427;52.204;7.202;2023-04-01T12:22:48;12.30;86.40
16627;DHT22;8427;52.204;7.202;2023-04-01T12:25:42;12.10;87.20
16627;DHT22;8427;52.204;7.202;2023-04-01T12:28:22;12.10;86.90
16627;DHT22;8427;52.204;7.202;2023-04-01T12:31:05;11.90;88.00
16627;DHT22;8427;52.204;7.202;2023-04-01T12:33:45;12.00;88.20
16627;DHT22;8427;52.204;7.202;2023-04-01T12:36:29;11.90;88.00
16627;DHT22;8427;52.204;7.202;2023-04-01T12:42:12;11.90;88.70
16627;DHT22;8427;52.204;7.202;2023-04-01T12:51:37;11.70;89.10
16627;DHT22;8427;52.204;7.202;2023-04-01T12:54:27;11.70;88.80
16627;DHT22;8427;52.204;7.202;2023-04-01T12:57:11;11.80;89.10
16627;DHT22;8427;52.204;7.202;2023-04-01T13:00:03;11.70;89.50
16627;DHT22;8427;52.204;7.202;2023-04-01T13:02:58;11.80;89.50
16627;DHT22;8427;52.204;7.202;2023-04-01T13:08:41;11.50;88.30
16627;DHT22;8427;52.204;7.202;2023-04-01T13:11:16;11.40;88.00
16627;DHT22;8427;52.204;7.202;2023-04-01T13:14:06;11.50;88.50
16627;DHT22;8427;52.204;7.202;2023-04-01T13:17:00;11.80;89.20
16627;DHT22;8427;52.204;7.202;2023-04-01T13:19:49;11.90;89.30
16627;DHT22;8427;52.204;7.202;2023-04-01T13:22:41;12.20;88.70
16627;DHT22;8427;52.204;7.202;2023-04-01T13:25:22;12.20;88.30
16627;DHT22;8427;52.204;7.202;2023-04-01T13:27:58;12.50;88.70
16627;DHT22;8427;52.204;7.202;2023-04-01T13:30:34;12.60;88.00
16627;DHT22;8427;52.204;7.202;2023-04-01T13:33:17;12.50;87.70
16627;DHT22;8427;52.204;7.202;2023-04-01T13:35:58;12.50;87.80
16627;DHT22;8427;52.204;7.202;2023-04-01T13:39:07;12.60;88.70
16627;DHT22;8427;52.204;7.202;2023-04-01T13:41:57;12.70;88.10
16627;DHT22;8427;52.204;7.202;2023-04-01T13:44:36;12.70;88.80
16627;DHT22;8427;52.204;7.202;2023-04-01T13:47:57;12.70;88.40
16627;DHT22;8427;52.204;7.202;2023-04-01T13:53:54;12.70;85.70
16627;DHT22;8427;52.204;7.202;2023-04-01T13:56:34;12.60;86.20
16627;DHT22;8427;52.204;7.202;2023-04-01T13:59:40;12.70;86.80
16627;DHT22;8427;52.204;7.202;2023-04-01T14:02:31;12.80;86.60
16627;DHT22;8427;52.204;7.202;2023-04-01T14:05:37;12.90;87.20
16627;DHT22;8427;52.204;7.202;2023-04-01T14:08:29;12.90;87.60
16627;DHT22;8427;52.204;7.202;2023-04-01T14:11:18;12.90;84.90
16627;DHT22;8427;52.204;7.202;2023-04-01T14:14:08;13.00;85.70
16627;DHT22;8427;52.204;7.202;2023-04-01T14:16:59;13.00;83.90
16627;DHT22;8427;52.204;7.202;2023-04-01T14:22:39;12.70;85.80
16627;DHT22;8427;52.204;7.202;2023-04-01T14:25:30;12.70;85.50
16627;DHT22;8427;52.204;7.202;2023-04-01T14:28:10;12.40;86.20
16627;DHT22;8427;52.204;7.202;2023-04-01T14:31:07;12.40;86.90
16627;DHT22;8427;52.204;7.202;2023-04-01T14:33:45;12.60;87.20
16627;DHT22;8427;52.204;7.202;2023-04-01T14:36:32;12.60;85.30
16627;DHT22;8427;52.204;7.202;2023-04-01T14:39:29;12.70;86.20
16627;DHT22;8427;52.204;7.202;2023-04-01T14:42:13;12.80;85.30
16627;DHT22;8427;52.204;7.202;2023-04-01T14:45:20;12.60;83.30
16627;DHT22;8427;52.204;7.202;2023-04-01T14:47:56;12.40;85.10
16627;DHT22;8427;52.204;7.202;2023-04-01T14:50:28;12.50;85.20
16627;DHT22;8427;52.204;7.202;2023-04-01T14:53:08;12.70;85.20
16627;DHT22;8427;52.204;7.202;2023-04-01T14:55:48;12.70;85.10
16627;DHT22;8427;52.204;7.202;2023-04-01T14:58:23;12.80;84.80
16627;DHT22;8427;52.204;7.202;2023-04-01T15:01:11;12.70;84.20
16627;DHT22;8427;52.204;7.202;2023-04-01T15:03:50;12.70;83.80
16627;DHT22;8427;52.204;7.202;2023-04-01T15:06:42;12.50;84.20
16627;DHT22;8427;52.204;7.202;2023-04-01T15:09:17;12.40;84.70
16627;DHT22;8427;52.204;7.202;2023-04-01T15:12:01;12.20;84.20
16627;DHT22;8427;52.204;7.202;2023-04-01T15:14:53;12.30;84.80
16627;DHT22;8427;52.204;7.202;2023-04-01T15:17:57;12.10;84.60
16627;DHT22;8427;52.204;7.202;2023-04-01T15:21:02;12.20;85.20
16627;DHT22;8427;52.204;7.202;2023-04-01T15:23:40;11.90;85.50
16627;DHT22;8427;52.204;7.202;2023-04-01T15:26:20;11.60;85.60
16627;DHT22;8427;52.204;7.202;2023-04-01T15:28:59;11.50;86.60
16627;DHT22;8427;52.204;7.202;2023-04-01T15:31:42;11.40;87.30
16627;DHT22;8427;52.204;7.202;2023-04-01T15:34:32;11.20;87.90
16627;DHT22;8427;52.204;7.202;2023-04-01T15:37:08;11.00;88.10
16627;DHT22;8427;52.204;7.202;2023-04-01T15:39:54;10.90;88.50
16627;DHT22;8427;52.204;7.202;2023-04-01T15:42:50;10.90;88.60
16627;DHT22;8427;52.204;7.202;2023-04-01T15:45:35;11.00;89.00
16627;DHT22;8427;52.204;7.202;2023-04-01T15:48:18;10.80;88.50
16627;DHT22;8427;52.204;7.202;2023-04-01T15:51:12;10.90;89.00
16627;DHT22;8427;52.204;7.202;2023-04-01T15:54:06;10.70;89.00
16627;DHT22;8427;52.204;7.202;2023-04-01T15:57:02;10.70;88.80
16627;DHT22;8427;52.204;7.202;2023-04-01T15:59:48;10.60;88.40
16627;DHT22;8427;52.204;7.202;2023-04-01T16:02:24;10.30;88.60
16627;DHT22;8427;52.204;7.202;2023-04-01T16:04:59;10.30;89.60
16627;DHT22;8427;52.204;7.202;2023-04-01T16:07:52;10.40;89.30
16627;DHT22;8427;52.204;7.202;2023-04-01T16:10:55;10.20;89.40
16627;DHT22;8427;52.204;7.202;2023-04-01T16:13:45;10.30;89.70
16627;DHT22;8427;52.204;7.202;2023-04-01T16:16:25;10.40;89.60
16627;DHT22;8427;52.204;7.202;2023-04-01T16:19:09;10.40;89.30
16627;DHT22;8427;52.204;7.202;2023-04-01T16:21:45;10.20;89.10
16627;DHT22;8427;52.204;7.202;2023-04-01T16:24:31;10.10;88.10
16627;DHT22;8427;52.204;7.202;2023-04-01T16:27:07;9.90;88.70
16627;DHT22;8427;52.204;7.202;2023-04-01T16:29:45;9.90;88.90
16627;DHT22;8427;52.204;7.202;2023-04-01T16:32:22;9.90;89.10
16627;DHT22;8427;52.204;7.202;2023-04-01T16:35:00;9.90;89.10
16627;DHT22;8427;52.204;7.202;2023-04-01T16:37:36;9.90;88.80
16627;DHT22;8427;52.204;7.202;2023-04-01T16:40:16;9.80;88.70
16627;DHT22;8427;52.204;7.202;2023-04-01T16:42:53;9.70;89.00
16627;DHT22;8427;52.204;7.202;2023-04-01T16:45:31;9.70;88.80
16627;DHT22;8427;52.204;7.202;2023-04-01T16:48:07;9.70;89.20
16627;DHT22;8427;52.204;7.202;2023-04-01T16:50:53;9.60;88.80
16627;DHT22;8427;52.204;7.202;2023-04-01T16:53:35;9.60;89.20
16627;DHT22;8427;52.204;7.202;2023-04-01T16:56:12;9.50;88.90
16627;DHT22;8427;52.204;7.202;2023-04-01T16:58:56;9.50;89.60
16627;DHT22;8427;52.204;7.202;2023-04-01T17:01:30;9.60;89.30
16627;DHT22;8427;52.204;7.202;2023-04-01T17:04:07;9.50;89.50
16627;DHT22;8427;52.204;7.202;2023-04-01T17:06:53;9.50;89.70
16627;DHT22;8427;52.204;7.202;2023-04-01T17:09:34;9.50;89.80
16627;DHT22;8427;52.204;7.202;2023-04-01T17:12:16;9.40;90.10
16627;DHT22;8427;52.204;7.202;2023-04-01T17:14:48;9.40;89.70
16627;DHT22;8427;52.204;7.202;2023-04-01T17:17:37;9.40;90.00
16627;DHT22;8427;52.204;7.202;2023-04-01T17:20:27;9.40;90.10
16627;DHT22;8427;52.204;7.202;2023-04-01T17:23:01;9.30;90.40
16627;DHT22;8427;52.204;7.202;2023-04-01T17:25:42;9.30;90.20
16627;DHT22;8427;52.204;7.202;2023-04-01T17:28:26;9.10;90.30
16627;DHT22;8427;52.204;7.202;2023-04-01T17:31:21;9.20;90.40
16627;DHT22;8427;52.204;7.202;2023-04-01T17:34:12;9.00;90.30
16627;DHT22;8427;52.204;7.202;2023-04-01T17:36:56;9.00;90.50
16627;DHT22;8427;52.204;7.202;2023-04-01T17:39:43;8.70;90.60
16627;DHT22;8427;52.204;7.202;2023-04-01T17:42:15;8.80;89.90
16627;DHT22;8427;52.204;7.202;2023-04-01T17:44:53;8.70;89.10
16627;DHT22;8427;52.204;7.202;2023-04-01T17:47:41;8.50;90.20
16627;DHT22;8427;52.204;7.202;2023-04-01T17:50:22;8.60;90.50
16627;DHT22;8427;52.204;7.202;2023-04-01T17:53:05;8.70;90.70
16627;DHT22;8427;52.204;7.202;2023-04-01T17:55:45;8.50;91.00
16627;DHT22;8427;52.204;7.202;2023-04-01T17:58:20;8.80;91.00
16627;DHT22;8427;52.204;7.202;2023-04-01T18:01:05;8.60;90.50
16627;DHT22;8427;52.204;7.202;2023-04-01T18:04:00;8.50;90.50
16627;DHT22;8427;52.204;7.202;2023-04-01T18:06:36;8.40;90.30
16627;DHT22;8427;52.204;7.202;2023-04-01T18:09:21;8.40;90.30
16627;DHT22;8427;52.204;7.202;2023-04-01T18:11:59;8.30;90.50
16627;DHT22;8427;52.204;7.202;2023-04-01T18:17:42;8.30;90.50
16627;DHT22;8427;52.204;7.202;2023-04-01T18:20:27;8.20;90.20
16627;DHT22;8427;52.204;7.202;2023-04-01T18:23:04;8.10;90.50